Thunder radar more information blitzortung!


Radar de pluja more information rain snow radar


Visita la nostra xarxa de llocs de meteo:

Template documentation
and downloads

And another site



No particular awareness of the weather is required.    There are no Weather-warnings

Pagina Historial Weather Underground text

Diari Resum Agost 26, 2017 Unitats:  Imperial    Mètric   Tant
« Previous Dia
SegĂźent Dia »
Diari Setmana Mensual Anual Personalitzada
  Maxima: Minima: Media:
Temperatura: TemperatureC °F 20.5 °F 26.6 °F
Punt de rosada: DewpointC °F 17.1 °F 18.5 °F
Humitat: Humidity % 45 % 62 %
Wind Speed: WindSpeedKMH mph 0.0 mph 7 mph
RĂ fegues de vent: WindSpeedGustKMH mph - -
Vent:- - SE
Pression baro: PressurehPa in 1013.8 in -
Precipitacions: 0.0 in    
Historical Graphs
 
 
Dades de taula per Agost 26, 2017
Temps Temperatura Punt de rosada Pression baro Vent Wind Speed RĂ fegues de vent Humitat Rainfall Rate (Hourly)
TemperatureC °F DewpointC °F PressurehPa in Calm     Humidity % HourlyPrecipMM in
00:00 23.2 °F 17.4 °F 1017.8 in West 3.7 mph 4.7 mph 70 % 0.0 in
00:05 23.3 °F 17.7 °F 1017.8 in West 4.7 mph 4.7 mph 71 % 0.0 in
00:10 23.2 °F 17.7 °F 1017.8 in West 5.6 mph 5.6 mph 71 % 0.0 in
00:15 23.3 °F 17.9 °F 1016.8 in WSW 3.7 mph 3.7 mph 72 % 0.0 in
00:20 23.2 °F 17.9 °F 1016.8 in NE 3.7 mph   72 % 0.0 in
00:30 21.6 °F 17.8 °F 1014.8 in Calm   3.2 mph 79 % 0.0 in
00:40 21.5 °F 17.7 °F 1014.8 in Calm     79 % 0.0 in
00:50 21.4 °F 17.6 °F 1014.8 in Calm     79 % 0.0 in
01:00 21.3 °F 17.5 °F 1014.8 in WNW 1.6 mph 1.6 mph 79 % 0.0 in
01:10 21.3 °F 17.7 °F 1014.8 in NE 1.6 mph   80 % 0.0 in
01:20 21.2 °F 17.6 °F 1014.8 in Calm     80 % 0.0 in
01:30 21.1 °F 17.5 °F 1013.8 in Calm     80 % 0.0 in
01:40 21.0 °F 17.4 °F 1013.8 in Calm     80 % 0.0 in
01:50 21.0 °F 17.2 °F 1014.8 in WNW 3.2 mph 3.2 mph 79 % 0.0 in
02:00 20.9 °F 17.5 °F 1014.8 in Calm   3.2 mph 81 % 0.0 in
02:10 21.0 °F 17.4 °F 1014.8 in Calm   3.2 mph 80 % 0.0 in
02:20 21.2 °F 17.8 °F 1014.8 in Calm     81 % 0.0 in
02:30 21.3 °F 17.9 °F 1014.8 in West 1.6 mph 3.2 mph 81 % 0.0 in
02:40 21.3 °F 17.7 °F 1014.8 in ENE 1.6 mph 3.2 mph 80 % 0.0 in
02:50 21.1 °F 17.5 °F 1014.8 in NE 1.6 mph 3.2 mph 80 % 0.0 in
03:00 21.1 °F 17.5 °F 1014.8 in Calm     80 % 0.0 in
03:10 20.9 °F 17.5 °F 1014.8 in Calm     81 % 0.0 in
03:20 20.8 °F 17.4 °F 1015.8 in East 1.6 mph 3.2 mph 81 % 0.0 in
03:30 20.7 °F 17.3 °F 1014.8 in SSW 1.6 mph 1.6 mph 81 % 0.0 in
03:40 20.6 °F 17.4 °F 1014.8 in Calm   1.6 mph 82 % 0.0 in
03:50 20.6 °F 17.4 °F 1015.8 in WSW 1.6 mph 3.2 mph 82 % 0.0 in
04:00 20.5 °F 17.3 °F 1014.8 in WSW 3.2 mph 3.2 mph 82 % 0.0 in
04:10 20.8 °F 17.8 °F 1014.8 in Calm   1.6 mph 83 % 0.0 in
04:20 21.3 °F 18.1 °F 1014.8 in SSW 1.6 mph 3.2 mph 82 % 0.0 in
04:30 21.8 °F 18.2 °F 1015.8 in SE 1.6 mph 3.2 mph 80 % 0.0 in
04:40 22.3 °F 18.5 °F 1015.8 in Calm   3.2 mph 79 % 0.0 in
04:50 22.7 °F 18.7 °F 1014.8 in Calm   3.2 mph 78 % 0.0 in
05:00 22.9 °F 18.4 °F 1015.8 in NNE 3.2 mph 6.4 mph 76 % 0.0 in
05:10 23.2 °F 18.1 °F 1015.8 in NE 3.2 mph 9.7 mph 73 % 0.0 in
05:20 23.5 °F 17.9 °F 1014.8 in NE 4.8 mph 9.7 mph 71 % 0.0 in
05:30 24.1 °F 18.1 °F 1014.8 in NE 4.8 mph 6.4 mph 69 % 0.0 in
05:40 24.3 °F 17.8 °F 1014.8 in NE 3.2 mph 12.9 mph 67 % 0.0 in
05:50 25.0 °F 17.9 °F 1015.8 in NNE 4.8 mph 9.7 mph 65 % 0.0 in
10:52 26.8 °F 19.2 °F 1015.8 in NE 5.6 mph 5.6 mph 63 % 0.0 in
10:53 26.8 °F 19.2 °F 1015.8 in East 5.6 mph 5.6 mph 63 % 0.0 in
10:55 27.0 °F 19.1 °F 1015.8 in NNE 5.6 mph 5.6 mph 62 % 0.0 in
11:00 27.0 °F 18.8 °F 1015.8 in ENE 3.9 mph 3.9 mph 61 % 0.0 in
11:05 27.0 °F 18.6 °F 1015.8 in NE 7.4 mph 7.4 mph 60 % 0.0 in
11:10 27.1 °F 18.7 °F 1015.8 in WNW 3.7 mph 3.9 mph 60 % 0.0 in
11:15 27.6 °F 19.1 °F 1015.8 in West 3.2 mph 3.2 mph 60 % 0.0 in
11:20 28.3 °F 19.5 °F 1015.8 in NE 5.6 mph 5.6 mph 59 % 0.0 in
11:25 28.7 °F 19.3 °F 1015.8 in NE 3.9 mph 3.9 mph 57 % 0.0 in
11:30 28.6 °F 19.2 °F 1015.8 in ENE 3.7 mph 3.7 mph 57 % 0.0 in
11:35 28.7 °F 18.8 °F 1015.8 in ESE 5.8 mph 5.8 mph 55 % 0.0 in
11:40 28.6 °F 18.1 °F 1015.8 in NNE 5.6 mph 5.6 mph 53 % 0.0 in
11:45 28.9 °F 18.3 °F 1014.8 in East 7.4 mph 7.4 mph 53 % 0.0 in
11:50 29.6 °F 19.0 °F 1014.8 in ENE 3.9 mph 3.9 mph 53 % 0.0 in
11:55 29.0 °F 17.2 °F 1014.8 in SSE 9.3 mph 9.3 mph 49 % 0.0 in
12:00 29.2 °F 17.7 °F 1014.8 in NE 5.6 mph 5.6 mph 50 % 0.0 in
12:05 29.9 °F 18.1 °F 1014.8 in SE 5.6 mph 5.6 mph 49 % 0.0 in
12:10 30.2 °F 17.7 °F 1014.8 in SSE 7.4 mph 7.4 mph 47 % 0.0 in
12:15 30.5 °F 18.2 °F 1014.8 in SSE 3.7 mph 3.7 mph 48 % 0.0 in
12:20 30.7 °F 18.8 °F 1014.8 in SSW 7.4 mph 7.4 mph 49 % 0.0 in
12:25 30.2 °F 18.3 °F 1014.8 in South 11.1 mph 11.1 mph 49 % 0.0 in
12:30 30.4 °F 18.5 °F 1014.8 in East 7.9 mph 7.9 mph 49 % 0.0 in
12:35 30.7 °F 18.4 °F 1014.8 in ESE 7.4 mph 7.4 mph 48 % 0.0 in
12:40 30.5 °F 18.2 °F 1014.8 in ESE 9.3 mph 9.3 mph 48 % 0.0 in
12:45 30.3 °F 17.1 °F 1014.8 in ESE 5.8 mph 5.8 mph 45 % 0.0 in
12:50 30.7 °F 18.1 °F 1014.8 in South 11.1 mph 11.1 mph 47 % 0.0 in
12:55 31.4 °F 18.4 °F 1014.8 in SSE 7.4 mph 7.4 mph 46 % 0.0 in
12:56 31.6 °F 18.6 °F 1014.8 in ESE 9.5 mph 9.5 mph 46 % 0.0 in
13:01 30.9 °F 18.6 °F 1014.8 in ESE 13.0 mph 13.0 mph 48 % 0.0 in
13:06 30.9 °F 18.9 °F 1014.8 in ENE 9.3 mph 9.3 mph 49 % 0.0 in
13:11 30.6 °F 18.7 °F 1014.8 in ESE 11.1 mph 11.1 mph 49 % 0.0 in
13:16 31.0 °F 19.1 °F 1014.8 in East 11.1 mph 11.1 mph 49 % 0.0 in
13:21 31.0 °F 18.7 °F 1014.8 in ESE 15.1 mph 15.1 mph 48 % 0.0 in
13:26 31.0 °F 18.4 °F 1014.8 in ESE 13.7 mph 13.7 mph 47 % 0.0 in
13:31 31.4 °F 18.4 °F 1014.8 in ESE 14.8 mph 14.8 mph 46 % 0.0 in
13:36 31.0 °F 18.0 °F 1014.8 in ESE 10.3 mph 10.3 mph 46 % 0.0 in
13:41 31.2 °F 18.9 °F 1014.8 in ESE 16.9 mph 16.9 mph 48 % 0.0 in
13:46 31.1 °F 18.8 °F 1014.8 in ESE 14.8 mph 14.8 mph 48 % 0.0 in
13:51 31.1 °F 19.1 °F 1014.8 in SE 16.7 mph 16.7 mph 49 % 0.0 in
13:56 30.9 °F 19.3 °F 1013.8 in SSW 13.0 mph 13.0 mph 50 % 0.0 in
14:01 30.6 °F 19.3 °F 1013.8 in East 16.7 mph 16.7 mph 51 % 0.0 in
14:06 30.7 °F 19.4 °F 1013.8 in ESE 13.0 mph 13.0 mph 51 % 0.0 in
14:11 30.9 °F 19.6 °F 1014.8 in ESE 11.1 mph 11.1 mph 51 % 0.0 in
14:16 30.8 °F 19.2 °F 1014.8 in SE 16.7 mph 16.7 mph 50 % 0.0 in
14:21 31.0 °F 18.7 °F 1014.8 in ESE 11.9 mph 11.9 mph 48 % 0.0 in
14:26 31.2 °F 19.2 °F 1014.8 in ENE 9.0 mph 9.0 mph 49 % 0.0 in
14:31 30.8 °F 18.8 °F 1014.8 in SE 11.1 mph 11.1 mph 49 % 0.0 in
14:36 31.2 °F 19.2 °F 1014.8 in SE 6.4 mph 6.4 mph 49 % 0.0 in
14:41 30.7 °F 18.8 °F 1014.8 in East 14.8 mph 14.8 mph 49 % 0.0 in
14:46 30.8 °F 18.8 °F 1014.8 in ESE 7.4 mph 7.6 mph 49 % 0.0 in
14:51 31.3 °F 19.0 °F 1014.8 in SSE 9.3 mph 9.3 mph 48 % 0.0 in
14:56 30.9 °F 18.6 °F 1014.8 in SE 13.0 mph 13.0 mph 48 % 0.0 in
15:01 31.1 °F 18.8 °F 1014.8 in ENE 18.5 mph 18.5 mph 48 % 0.0 in
15:06 31.2 °F 18.6 °F 1014.8 in ESE 18.5 mph 18.5 mph 47 % 0.0 in
15:11 30.9 °F 18.6 °F 1014.8 in SW 14.8 mph 14.8 mph 48 % 0.0 in
15:16 31.1 °F 18.8 °F 1014.8 in ESE 9.3 mph 9.3 mph 48 % 0.0 in
15:21 30.7 °F 18.4 °F 1014.8 in ESE 13.0 mph 13.0 mph 48 % 0.0 in
15:26 30.3 °F 18.4 °F 1014.8 in East 20.4 mph 20.4 mph 49 % 0.0 in
15:31 30.4 °F 18.5 °F 1014.8 in ESE 13.0 mph 13.0 mph 49 % 0.0 in
15:36 30.4 °F 18.5 °F 1014.8 in SSE 14.8 mph 14.8 mph 49 % 0.0 in
15:41 30.4 °F 18.8 °F 1013.8 in ENE 14.8 mph 14.8 mph 50 % 0.0 in
15:46 30.6 °F 19.0 °F 1013.8 in ESE 13.0 mph 13.0 mph 50 % 0.0 in
15:51 30.1 °F 18.6 °F 1013.8 in ESE 16.4 mph 16.4 mph 50 % 0.0 in
15:56 29.9 °F 18.3 °F 1014.8 in ESE 13.0 mph 13.0 mph 50 % 0.0 in
16:01 29.8 °F 18.3 °F 1014.8 in SE 16.4 mph 16.4 mph 50 % 0.0 in
16:06 29.9 °F 18.3 °F 1014.8 in East 13.0 mph 13.0 mph 50 % 0.0 in
16:11 30.1 °F 18.6 °F 1014.8 in SW 9.3 mph 9.3 mph 50 % 0.0 in
16:16 29.8 °F 18.6 °F 1014.8 in ESE 16.9 mph 16.9 mph 51 % 0.0 in
16:21 29.8 °F 18.6 °F 1014.8 in SSE 14.8 mph 14.8 mph 51 % 0.0 in
16:26 29.9 °F 18.3 °F 1013.8 in ESE 13.0 mph 13.0 mph 50 % 0.0 in
16:31 29.8 °F 18.3 °F 1013.8 in ESE 13.0 mph 13.0 mph 50 % 0.0 in
16:36 30.1 °F 18.6 °F 1013.8 in ESE 11.1 mph 11.1 mph 50 % 0.0 in
16:41 30.2 °F 18.6 °F 1014.8 in ESE 11.1 mph 11.1 mph 50 % 0.0 in
16:46 30.3 °F 18.4 °F 1014.8 in ESE 20.4 mph 20.4 mph 49 % 0.0 in
16:51 30.4 °F 18.8 °F 1014.8 in ESE 10.3 mph 10.3 mph 50 % 0.0 in
16:56 30.0 °F 18.4 °F 1013.8 in ESE 13.0 mph 13.0 mph 50 % 0.0 in
17:01 30.3 °F 18.7 °F 1013.8 in ESE 9.3 mph 9.3 mph 50 % 0.0 in
17:06 30.1 °F 18.6 °F 1013.8 in ESE 20.4 mph 20.4 mph 50 % 0.0 in
17:11 30.3 °F 18.7 °F 1013.8 in ENE 13.0 mph 13.0 mph 50 % 0.0 in
17:16 30.3 °F 18.7 °F 1013.8 in ESE 13.0 mph 13.0 mph 50 % 0.0 in
17:21 30.0 °F 18.4 °F 1013.8 in ESE 11.1 mph 11.1 mph 50 % 0.0 in
17:26 30.0 °F 18.4 °F 1013.8 in ESE 18.0 mph 18.0 mph 50 % 0.0 in
17:31 29.7 °F 18.5 °F 1013.8 in ESE 13.0 mph 13.0 mph 51 % 0.0 in
17:36 30.0 °F 18.4 °F 1013.8 in SSE 9.3 mph 9.3 mph 50 % 0.0 in
17:41 29.8 °F 18.3 °F 1013.8 in NNE 11.1 mph 11.1 mph 50 % 0.0 in
17:46 29.7 °F 18.2 °F 1013.8 in ESE 13.0 mph 13.0 mph 50 % 0.0 in
17:51 29.8 °F 18.3 °F 1013.8 in ESE 13.0 mph 13.0 mph 50 % 0.0 in
17:56 29.5 °F 18.0 °F 1013.8 in ESE 11.9 mph 11.9 mph 50 % 0.0 in
18:01 29.6 °F 17.8 °F 1013.8 in ESE 9.3 mph 9.3 mph 49 % 0.0 in
18:06 29.6 °F 17.8 °F 1013.8 in ENE 10.0 mph 10.0 mph 49 % 0.0 in
18:11 29.6 °F 17.8 °F 1013.8 in East 11.1 mph 11.1 mph 49 % 0.0 in
18:16 29.5 °F 17.7 °F 1013.8 in ESE 15.6 mph 15.6 mph 49 % 0.0 in
18:21 29.3 °F 17.5 °F 1013.8 in ESE 16.9 mph 16.9 mph 49 % 0.0 in
18:26 29.2 °F 17.7 °F 1013.8 in East 13.0 mph 13.0 mph 50 % 0.0 in
18:31 29.1 °F 17.6 °F 1013.8 in ENE 16.7 mph 16.7 mph 50 % 0.0 in
18:36 29.1 °F 17.9 °F 1013.8 in East 14.8 mph 14.8 mph 51 % 0.0 in
18:42 28.9 °F 18.1 °F 1013.8 in ENE 16.7 mph 16.7 mph 52 % 0.0 in
18:47 28.9 °F 18.1 °F 1013.8 in SE 14.8 mph 14.8 mph 52 % 0.0 in
18:52 28.9 °F 18.3 °F 1013.8 in SE 13.0 mph 13.0 mph 53 % 0.0 in
18:57 28.6 °F 18.4 °F 1013.8 in SE 13.7 mph 13.7 mph 54 % 0.0 in
19:02 28.3 °F 18.4 °F 1013.8 in SE 16.7 mph 16.7 mph 55 % 0.0 in
19:07 28.1 °F 18.5 °F 1013.8 in ENE 13.0 mph 13.0 mph 56 % 0.0 in
19:12 28.0 °F 18.7 °F 1013.8 in ESE 11.1 mph 11.1 mph 57 % 0.0 in
19:17 27.7 °F 18.7 °F 1013.8 in ESE 16.7 mph 16.7 mph 58 % 0.0 in
19:22 27.5 °F 18.8 °F 1013.8 in ESE 14.8 mph 14.8 mph 59 % 0.0 in
19:27 27.3 °F 18.8 °F 1013.8 in ESE 13.0 mph 13.0 mph 60 % 0.0 in
19:32 27.2 °F 18.8 °F 1013.8 in East 11.1 mph 11.1 mph 60 % 0.0 in
19:37 27.1 °F 18.9 °F 1013.8 in ESE 13.0 mph 13.0 mph 61 % 0.0 in
19:42 26.9 °F 19.3 °F 1013.8 in East 13.0 mph 13.0 mph 63 % 0.0 in
19:47 26.7 °F 19.3 °F 1013.8 in ESE 14.8 mph 14.8 mph 64 % 0.0 in
19:52 26.7 °F 19.3 °F 1013.8 in ESE 7.9 mph 7.9 mph 64 % 0.0 in
19:57 26.6 °F 19.2 °F 1013.8 in ESE 5.6 mph 5.6 mph 64 % 0.0 in
20:02 26.5 °F 18.9 °F 1013.8 in ENE 3.7 mph   63 % 0.0 in
20:07 26.5 °F 19.1 °F 1013.8 in ESE 5.6 mph 5.6 mph 64 % 0.0 in
20:12 26.4 °F 19.1 °F 1014.8 in NE 3.7 mph 3.7 mph 64 % 0.0 in
20:15 24.2 °F 19.5 °F 1014.8 in East 3.2 mph 3.2 mph 75 % 0.0 in
20:17 26.4 °F 19.1 °F 1014.8 in ENE 3.7 mph 3.7 mph 64 % 0.0 in
20:22 26.3 °F 18.9 °F 1014.8 in ENE 3.7 mph 3.7 mph 64 % 0.0 in
20:25 24.1 °F 19.4 °F 1014.8 in East 3.2 mph 3.2 mph 75 % 0.0 in
20:27 26.2 °F 18.8 °F 1014.8 in NE 1.9 mph 2.3 mph 64 % 0.0 in
20:32 26.2 °F 18.8 °F 1014.8 in Calm     64 % 0.0 in
20:35 24.0 °F 19.3 °F 1014.8 in ENE 3.2 mph 4.8 mph 75 % 0.0 in
20:37 26.2 °F 18.8 °F 1014.8 in WSW 3.7 mph 3.7 mph 64 % 0.0 in
20:42 26.3 °F 18.9 °F 1014.8 in WSW 5.6 mph 5.6 mph 64 % 0.0 in
20:45 24.0 °F 19.5 °F 1013.8 in East 1.6 mph 4.8 mph 76 % 0.0 in
20:47 26.2 °F 18.8 °F 1014.8 in SW 5.6 mph 5.6 mph 64 % 0.0 in
20:52 26.2 °F 18.8 °F 1014.8 in SW 5.8 mph 5.8 mph 64 % 0.0 in
20:55 23.9 °F 19.4 °F 1013.8 in Calm   4.8 mph 76 % 0.0 in
20:57 26.2 °F 19.1 °F 1014.8 in SW 3.7 mph 3.7 mph 65 % 0.0 in
21:02 26.1 °F 19.0 °F 1014.8 in SW 3.7 mph 3.7 mph 65 % 0.0 in
21:05 23.9 °F 19.2 °F 1014.8 in NNE 1.6 mph 3.2 mph 75 % 0.0 in
21:07 26.0 °F 18.9 °F 1014.8 in SW 3.7 mph 3.7 mph 65 % 0.0 in
21:12 26.0 °F 18.9 °F 1014.8 in SW 3.7 mph 3.7 mph 65 % 0.0 in
21:15 23.8 °F 19.3 °F 1014.8 in Calm   3.2 mph 76 % 0.0 in
21:17 25.9 °F 19.1 °F 1014.8 in SW 4.2 mph 4.2 mph 66 % 0.0 in
21:22 25.8 °F 18.9 °F 1014.8 in WSW 4.2 mph 4.2 mph 66 % 0.0 in
21:25 23.7 °F 19.2 °F 1014.8 in West 3.2 mph 3.2 mph 76 % 0.0 in
21:27 25.7 °F 18.9 °F 1014.8 in SW 3.7 mph 3.7 mph 66 % 0.0 in
21:32 25.7 °F 18.9 °F 1014.8 in SW 5.6 mph 5.6 mph 66 % 0.0 in
21:35 23.7 °F 19.4 °F 1014.8 in Calm   1.6 mph 77 % 0.0 in
21:37 25.5 °F 18.9 °F 1014.8 in SW 4.2 mph 4.2 mph 67 % 0.0 in
21:42 25.4 °F 18.8 °F 1015.8 in WSW 5.6 mph 5.6 mph 67 % 0.0 in
21:43 25.4 °F 18.8 °F 1015.8 in West 5.6 mph 5.6 mph 67 % 0.0 in
21:45 23.7 °F 19.4 °F 1014.8 in Calm     77 % 0.0 in
21:48 25.3 °F 18.7 °F 1015.8 in SW 7.4 mph 7.4 mph 67 % 0.0 in
21:53 25.2 °F 18.6 °F 1015.8 in SW 9.3 mph 9.3 mph 67 % 0.0 in
21:55 23.6 °F 19.3 °F 1014.8 in Calm     77 % 0.0 in
21:58 25.2 °F 18.9 °F 1015.8 in SW 5.6 mph 5.6 mph 68 % 0.0 in
22:03 25.1 °F 18.8 °F 1015.8 in SW 3.7 mph   68 % 0.0 in
22:05 23.4 °F 19.1 °F 1014.8 in Calm   3.2 mph 77 % 0.0 in
22:08 25.0 °F 18.7 °F 1015.8 in SW 3.7 mph 3.7 mph 68 % 0.0 in
22:13 25.0 °F 18.7 °F 1015.8 in SW 3.7 mph   68 % 0.0 in
22:15 23.2 °F 18.9 °F 1014.8 in Calm     77 % 0.0 in
22:18 24.9 °F 18.8 °F 1015.8 in West 5.6 mph 5.6 mph 69 % 0.0 in
22:23 24.9 °F 19.1 °F 1015.8 in SW 3.7 mph 3.7 mph 70 % 0.0 in
22:25 23.1 °F 18.8 °F 1014.8 in Calm   4.8 mph 77 % 0.0 in
22:28 24.8 °F 18.9 °F 1014.8 in West 3.7 mph 3.7 mph 70 % 0.0 in
22:33 24.8 °F 18.9 °F 1014.8 in WSW 3.7 mph 3.7 mph 70 % 0.0 in
22:35 23.1 °F 19.1 °F 1014.8 in Calm   3.2 mph 78 % 0.0 in
22:38 24.7 °F 18.8 °F 1014.8 in West 3.7 mph 3.7 mph 70 % 0.0 in
22:43 24.6 °F 19.0 °F 1015.8 in SW 1.9 mph   71 % 0.0 in
22:45 23.1 °F 18.8 °F 1013.8 in SW 1.6 mph 3.2 mph 77 % 0.0 in
22:48 24.5 °F 18.9 °F 1015.8 in SW 1.9 mph   71 % 0.0 in
22:53 24.5 °F 18.9 °F 1015.8 in South 1.9 mph   71 % 0.0 in
22:55 23.0 °F 18.9 °F 1013.8 in SW 1.6 mph 3.2 mph 78 % 0.0 in
22:58 24.4 °F 18.8 °F 1014.8 in SSE 1.9 mph 1.9 mph 71 % 0.0 in
23:03 24.3 °F 18.7 °F 1014.8 in Calm     71 % 0.0 in
23:05 22.8 °F 18.9 °F 1013.8 in Calm   1.6 mph 79 % 0.0 in
23:08 24.3 °F 18.9 °F 1014.8 in SSE 1.9 mph   72 % 0.0 in
23:13 24.3 °F 18.9 °F 1014.8 in Calm     72 % 0.0 in
23:15 22.8 °F 18.9 °F 1013.8 in SW 1.6 mph 3.2 mph 79 % 0.0 in
23:18 24.3 °F 19.2 °F 1014.8 in South 1.9 mph   73 % 0.0 in
23:23 24.3 °F 19.2 °F 1014.8 in Calm     73 % 0.0 in
23:25 22.7 °F 19.1 °F 1013.8 in SW 1.6 mph 3.2 mph 80 % 0.0 in
23:28 24.3 °F 19.2 °F 1014.8 in ENE 2.6 mph   73 % 0.0 in
23:33 24.2 °F 19.1 °F 1014.8 in ENE 1.9 mph 2.3 mph 73 % 0.0 in
23:35 22.7 °F 19.1 °F 1013.8 in Calm   3.2 mph 80 % 0.0 in
23:38 24.2 °F 19.1 °F 1014.8 in Calm     73 % 0.0 in
23:43 24.1 °F 18.9 °F 1014.8 in Calm     73 % 0.0 in
23:45 22.6 °F 19.2 °F 1013.8 in Calm   1.6 mph 81 % 0.0 in
23:48 24.1 °F 18.9 °F 1014.8 in ENE 1.9 mph   73 % 0.0 in
23:53 24.1 °F 18.9 °F 1014.8 in Calm     73 % 0.0 in
23:55 22.6 °F 19.2 °F 1013.8 in ESE 1.6 mph 1.6 mph 81 % 0.0 in
23:58 24.1 °F 19.2 °F 1014.8 in ENE 1.9 mph   74 % 0.0 in
Meteo Sesrovires
Elogis d' Weather Underground - 3.75 mb

Guio original per  Jim McMurry - jmcmurry@mwt.net Adaptat per a la plantilla per  Wim van der Kuil - Leuven-Template.eu

Trobareu la nostra informacio del temps tambe a:

Weather Underground

AWEKAS